createdAt,value
2018-12-03T00:02:20.886Z,9.30
2018-12-03T00:04:49.178Z,9.30
2018-12-03T00:07:17.363Z,9.30
2018-12-03T00:09:45.587Z,9.30
2018-12-03T00:12:13.793Z,9.30
2018-12-03T00:14:42.028Z,9.30
2018-12-03T00:17:10.225Z,9.30
2018-12-03T00:19:38.461Z,9.30
2018-12-03T00:22:06.672Z,9.30
2018-12-03T00:24:34.877Z,9.30
2018-12-03T00:27:03.105Z,9.30
2018-12-03T00:29:31.375Z,9.30
2018-12-03T00:31:59.694Z,9.30
2018-12-03T00:34:27.970Z,9.30
2018-12-03T00:36:56.165Z,9.30
2018-12-03T00:39:24.382Z,9.30
2018-12-03T00:41:52.621Z,9.40
2018-12-03T00:44:20.883Z,9.40
2018-12-03T00:46:49.082Z,9.40
2018-12-03T00:49:17.289Z,9.40
2018-12-03T00:51:45.498Z,9.40
2018-12-03T00:54:13.738Z,9.40
2018-12-03T00:56:41.974Z,9.40
2018-12-03T00:59:10.177Z,9.40
2018-12-03T01:01:38.370Z,9.40
2018-12-03T01:04:06.602Z,9.40
2018-12-03T01:06:34.818Z,9.50
2018-12-03T01:09:03.209Z,9.50
2018-12-03T01:11:31.426Z,9.50
2018-12-03T01:13:59.614Z,9.50
2018-12-03T01:16:27.846Z,9.60
2018-12-03T01:18:56.050Z,9.60
2018-12-03T01:21:24.279Z,9.70
2018-12-03T01:23:52.476Z,9.70
2018-12-03T01:26:20.794Z,9.70
2018-12-03T01:28:49.001Z,9.70
2018-12-03T01:31:17.250Z,9.70
2018-12-03T01:33:45.449Z,9.80
2018-12-03T01:36:13.758Z,9.80
2018-12-03T01:38:41.996Z,9.80
2018-12-03T01:41:10.224Z,9.80
2018-12-03T01:43:38.418Z,9.80
2018-12-03T01:46:06.697Z,9.80
2018-12-03T01:48:34.901Z,9.80
2018-12-03T01:51:03.113Z,9.80
2018-12-03T01:53:31.289Z,9.80
2018-12-03T01:55:59.489Z,9.80
2018-12-03T01:58:27.665Z,9.80
2018-12-03T02:00:55.892Z,9.80
2018-12-03T02:03:24.108Z,9.70
2018-12-03T02:05:52.333Z,9.80
2018-12-03T02:08:20.525Z,9.70
2018-12-03T02:10:48.747Z,9.80
2018-12-03T02:13:17.007Z,9.80
2018-12-03T02:15:45.291Z,9.80
2018-12-03T02:18:13.709Z,9.80
2018-12-03T02:20:41.925Z,9.90
2018-12-03T02:23:10.113Z,9.90
2018-12-03T02:25:38.315Z,9.80
2018-12-03T02:28:06.697Z,9.80
2018-12-03T02:30:34.882Z,9.80
2018-12-03T02:33:03.193Z,9.70
2018-12-03T02:35:31.389Z,9.80
2018-12-03T02:37:59.626Z,9.80
2018-12-03T02:40:27.839Z,9.70
2018-12-03T02:42:56.069Z,9.70
2018-12-03T02:45:24.270Z,9.70
2018-12-03T02:47:52.470Z,9.70
2018-12-03T02:50:20.771Z,9.70
2018-12-03T02:52:48.954Z,9.70
2018-12-03T02:55:17.186Z,9.70
2018-12-03T02:57:45.416Z,9.70
2018-12-03T03:00:14.525Z,9.70
2018-12-03T03:02:42.998Z,9.70
2018-12-03T03:05:12.378Z,9.80
2018-12-03T03:07:40.561Z,9.80
2018-12-03T03:10:11.861Z,9.80
2018-12-03T03:12:40.083Z,9.80
2018-12-03T03:15:09.654Z,9.90
2018-12-03T03:17:38.102Z,9.90
2018-12-03T03:20:08.023Z,9.90
2018-12-03T03:22:36.363Z,9.90
2018-12-03T03:25:04.617Z,9.80
2018-12-03T03:27:32.809Z,9.90
2018-12-03T03:30:01.093Z,9.90
2018-12-03T03:32:29.296Z,9.90
2018-12-03T03:34:57.493Z,9.90
2018-12-03T03:37:25.687Z,9.90
2018-12-03T03:39:53.877Z,9.90
2018-12-03T03:42:22.059Z,9.90
2018-12-03T03:44:50.343Z,9.90
2018-12-03T03:47:18.546Z,9.90
2018-12-03T03:49:46.742Z,9.90
2018-12-03T03:52:14.957Z,9.80
2018-12-03T03:54:43.166Z,9.80
2018-12-03T03:57:11.371Z,9.80
2018-12-03T03:59:39.590Z,9.80
2018-12-03T04:02:07.787Z,9.80
2018-12-03T04:04:36.053Z,9.80
2018-12-03T04:07:04.226Z,9.80
2018-12-03T04:09:32.453Z,9.80
2018-12-03T04:12:00.651Z,9.80
2018-12-03T04:14:28.869Z,9.80
2018-12-03T04:16:57.075Z,9.80
2018-12-03T04:19:25.269Z,9.80
2018-12-03T04:21:53.459Z,9.80
2018-12-03T04:24:21.666Z,9.80
2018-12-03T04:26:49.838Z,9.80
2018-12-03T04:29:18.074Z,9.80
2018-12-03T04:31:46.238Z,9.80
2018-12-03T04:34:14.430Z,9.80
2018-12-03T04:36:42.602Z,9.80
2018-12-03T04:39:10.798Z,9.80
2018-12-03T04:41:38.974Z,9.80
2018-12-03T04:44:07.187Z,9.80
2018-12-03T04:46:35.393Z,9.90
2018-12-03T04:49:03.614Z,9.90
2018-12-03T04:51:31.829Z,9.90
2018-12-03T04:54:00.025Z,9.90
2018-12-03T04:56:28.222Z,9.90
2018-12-03T04:58:56.431Z,9.90
2018-12-03T05:01:24.593Z,9.90
2018-12-03T05:03:52.787Z,9.90
2018-12-03T05:06:20.939Z,9.90
2018-12-03T05:08:49.150Z,9.90
2018-12-03T05:11:17.350Z,9.90
2018-12-03T05:13:45.539Z,9.90
2018-12-03T05:16:13.701Z,9.90
2018-12-03T05:18:42.090Z,9.90
2018-12-03T05:21:10.254Z,9.90
2018-12-03T05:23:38.445Z,9.90
2018-12-03T05:26:06.638Z,9.90
2018-12-03T05:28:34.825Z,9.90
2018-12-03T05:31:03.030Z,9.90
2018-12-03T05:33:31.206Z,9.90
2018-12-03T05:35:59.386Z,9.90
2018-12-03T05:38:27.565Z,10.00
2018-12-03T05:40:55.738Z,10.00
2018-12-03T05:43:23.931Z,10.00
2018-12-03T05:45:52.096Z,10.00
2018-12-03T05:48:20.282Z,10.00
2018-12-03T05:50:48.449Z,10.00
2018-12-03T05:53:16.634Z,10.00
2018-12-03T05:55:44.794Z,9.90
2018-12-03T05:58:12.973Z,10.00
2018-12-03T06:00:41.133Z,10.00
2018-12-03T06:03:09.314Z,10.00
2018-12-03T06:05:37.549Z,10.00
2018-12-03T06:08:05.794Z,10.00
2018-12-03T06:10:33.969Z,10.10
2018-12-03T06:13:02.162Z,10.10
2018-12-03T06:15:30.334Z,10.10
2018-12-03T06:17:58.522Z,10.00
2018-12-03T06:20:26.722Z,10.10
2018-12-03T06:22:54.998Z,10.10
2018-12-03T06:25:26.278Z,10.00
2018-12-03T06:27:54.469Z,10.00
2018-12-03T06:30:23.610Z,10.00
2018-12-03T06:32:51.825Z,10.00
2018-12-03T06:35:20.258Z,10.00
2018-12-03T06:37:48.766Z,10.00
2018-12-03T06:40:18.852Z,10.10
2018-12-03T06:42:47.040Z,10.10
2018-12-03T06:45:17.330Z,10.10
2018-12-03T06:47:48.510Z,10.10
2018-12-03T06:50:16.669Z,10.10
2018-12-03T06:52:44.873Z,10.10
2018-12-03T06:55:13.042Z,10.10
2018-12-03T06:57:41.225Z,10.10
2018-12-03T07:00:11.485Z,10.10
2018-12-03T07:02:39.868Z,10.10
2018-12-03T07:05:09.167Z,10.10
2018-12-03T07:07:37.324Z,10.20
2018-12-03T07:10:10.818Z,10.20
2018-12-03T07:12:38.978Z,10.20
2018-12-03T07:15:09.349Z,10.20
2018-12-03T07:17:37.520Z,10.20
2018-12-03T07:20:10.970Z,10.20
2018-12-03T07:22:39.277Z,8.70
2018-12-03T07:25:08.790Z,10.20
2018-12-03T07:27:36.965Z,10.20
2018-12-03T07:30:14.485Z,10.20
2018-12-03T07:32:42.714Z,10.20
2018-12-03T07:35:10.878Z,10.20
2018-12-03T07:37:39.071Z,10.20
2018-12-03T07:40:08.897Z,10.20
2018-12-03T07:42:37.266Z,10.30
2018-12-03T07:45:09.918Z,10.30
2018-12-03T07:47:38.461Z,10.20
2018-12-03T07:50:16.163Z,10.20
2018-12-03T07:52:44.369Z,10.20
2018-12-03T07:55:14.704Z,10.20
2018-12-03T07:57:50.853Z,10.20
2018-12-03T08:00:20.886Z,10.20
2018-12-03T08:02:49.051Z,10.20
2018-12-03T08:05:17.227Z,10.20
2018-12-03T08:07:45.402Z,10.20
2018-12-03T08:10:16.767Z,10.20
2018-12-03T08:12:45.657Z,10.20
2018-12-03T08:15:15.097Z,10.20
2018-12-03T08:17:47.941Z,10.20
2018-12-03T08:20:18.572Z,10.20
2018-12-03T08:22:48.701Z,10.20
2018-12-03T08:25:16.982Z,10.10
2018-12-03T08:27:45.137Z,10.20
2018-12-03T08:30:13.312Z,10.10
2018-12-03T08:32:41.468Z,10.10
2018-12-03T08:35:13.037Z,10.10
2018-12-03T08:37:41.213Z,10.10
2018-12-03T08:40:14.606Z,10.10
2018-12-03T08:42:45.254Z,10.10
2018-12-03T08:45:13.524Z,10.00
2018-12-03T08:47:41.669Z,10.00
2018-12-03T08:50:16.929Z,10.00
2018-12-03T08:52:45.113Z,10.00
2018-12-03T08:55:13.286Z,10.00
2018-12-03T08:57:41.454Z,10.00
2018-12-03T09:00:22.005Z,10.00
2018-12-03T09:03:01.245Z,10.00
2018-12-03T09:05:35.457Z,10.00
2018-12-03T09:08:03.596Z,10.00
2018-12-03T09:10:31.745Z,10.00
2018-12-03T09:13:05.547Z,10.00
2018-12-03T09:15:33.670Z,10.00
2018-12-03T09:18:01.778Z,10.00
2018-12-03T09:20:29.898Z,9.90
2018-12-03T09:22:57.991Z,9.90
2018-12-03T09:25:26.121Z,9.90
2018-12-03T09:27:54.215Z,9.90
2018-12-03T09:30:27.548Z,9.90
2018-12-03T09:32:50.430Z,9.90
2018-12-03T09:35:18.543Z,9.90
2018-12-03T09:37:46.646Z,10.00
2018-12-03T09:40:19.243Z,10.00
2018-12-03T09:42:47.345Z,10.00
2018-12-03T09:45:16.534Z,10.00
2018-12-03T09:47:44.790Z,10.00
2018-12-03T09:50:19.623Z,10.00
2018-12-03T09:52:47.774Z,10.10
2018-12-03T09:55:18.771Z,10.00
2018-12-03T09:57:58.290Z,10.00
2018-12-03T10:00:26.475Z,10.10
2018-12-03T10:02:55.076Z,10.00
2018-12-03T10:05:24.538Z,10.10
2018-12-03T10:07:52.670Z,10.10
2018-12-03T10:10:20.803Z,10.10
2018-12-03T10:12:48.918Z,10.20
2018-12-03T10:15:17.058Z,10.30
2018-12-03T10:17:48.771Z,10.40
2018-12-03T10:20:16.912Z,10.50
2018-12-03T10:22:48.654Z,10.60
2018-12-03T10:25:16.834Z,10.60
2018-12-03T10:27:45.044Z,10.70
2018-12-03T10:30:15.906Z,10.80
2018-12-03T10:32:44.114Z,10.90
2018-12-03T10:35:12.291Z,10.90
2018-12-03T10:37:40.415Z,11.00
2018-12-03T10:40:14.530Z,11.00
2018-12-03T10:42:43.407Z,11.00
2018-12-03T10:45:18.290Z,11.00
2018-12-03T10:47:46.410Z,11.00
2018-12-03T10:50:22.226Z,11.00
2018-12-03T10:52:46.758Z,10.90
2018-12-03T10:55:14.915Z,11.00
2018-12-03T10:57:44.327Z,10.90
2018-12-03T11:00:21.884Z,11.00
2018-12-03T11:02:56.852Z,11.00
2018-12-03T11:05:33.835Z,11.00
2018-12-03T11:08:01.975Z,11.00
2018-12-03T11:10:33.562Z,11.00
2018-12-03T11:13:01.800Z,11.00
2018-12-03T11:15:29.938Z,11.00
2018-12-03T11:17:58.581Z,10.90
2018-12-03T11:20:26.723Z,10.90
2018-12-03T11:22:54.842Z,10.90
2018-12-03T11:25:28.826Z,10.90
2018-12-03T11:27:57.775Z,10.90
2018-12-03T11:30:25.940Z,10.90
2018-12-03T11:32:54.071Z,11.00
2018-12-03T11:35:32.291Z,10.90
2018-12-03T11:38:10.482Z,11.00
2018-12-03T11:40:42.670Z,10.90
2018-12-03T11:43:11.065Z,11.00
2018-12-03T11:45:39.524Z,11.00
2018-12-03T11:48:07.841Z,11.10
2018-12-03T11:50:35.954Z,11.10
2018-12-03T11:53:04.090Z,11.10
2018-12-03T11:55:32.216Z,11.10
2018-12-03T11:58:00.370Z,11.10
2018-12-03T12:00:28.503Z,11.10
2018-12-03T12:02:56.646Z,11.10
2018-12-03T12:05:24.788Z,11.10
2018-12-03T12:07:52.955Z,11.10
2018-12-03T12:10:21.079Z,11.10
2018-12-03T12:12:49.218Z,11.10
2018-12-03T12:15:17.343Z,11.10
2018-12-03T12:17:45.484Z,11.10
2018-12-03T12:20:13.611Z,11.10
2018-12-03T12:22:41.755Z,11.10
2018-12-03T12:25:11.431Z,11.10
2018-12-03T12:27:42.090Z,11.10
2018-12-03T12:30:12.615Z,11.10
2018-12-03T12:32:40.750Z,11.10
2018-12-03T12:35:09.426Z,11.10
2018-12-03T12:37:38.312Z,11.10
2018-12-03T12:40:13.342Z,11.10
2018-12-03T12:42:46.024Z,11.10
2018-12-03T12:45:16.154Z,11.10
2018-12-03T12:47:44.328Z,11.00
2018-12-03T12:50:18.667Z,10.90
2018-12-03T12:52:47.974Z,10.90
2018-12-03T12:55:15.903Z,10.90
2018-12-03T12:57:44.043Z,10.90
2018-12-03T13:00:14.611Z,10.80
2018-12-03T13:02:43.681Z,10.80
2018-12-03T13:05:11.798Z,10.80
2018-12-03T13:07:39.935Z,10.80
2018-12-03T13:10:11.387Z,10.80
2018-12-03T13:12:39.570Z,10.80
2018-12-03T13:15:10.934Z,10.90
2018-12-03T13:17:39.546Z,10.90
2018-12-03T13:20:12.674Z,10.80
2018-12-03T13:22:40.806Z,10.80
2018-12-03T13:25:10.654Z,10.80
2018-12-03T13:27:38.764Z,10.80
2018-12-03T13:30:11.815Z,10.80
2018-12-03T13:32:40.024Z,10.70
2018-12-03T13:35:09.798Z,10.60
2018-12-03T13:37:37.910Z,10.60
2018-12-03T13:40:10.863Z,10.60
2018-12-03T13:42:38.982Z,10.50
2018-12-03T13:45:10.217Z,10.50
2018-12-03T13:47:38.342Z,10.40
2018-12-03T13:50:09.961Z,10.40
2018-12-03T13:52:37.719Z,10.30
2018-12-03T13:55:11.238Z,10.30
2018-12-03T13:57:39.654Z,10.20
2018-12-03T14:00:13.975Z,10.10
2018-12-03T14:02:42.560Z,10.10
2018-12-03T14:05:12.816Z,10.10
2018-12-03T14:07:44.968Z,10.00
2018-12-03T14:10:30.615Z,10.00
2018-12-03T14:13:10.247Z,9.90
2018-12-03T14:15:49.390Z,9.80
2018-12-03T14:18:24.231Z,9.80
2018-12-03T14:20:54.043Z,9.80
2018-12-03T14:23:27.524Z,9.70
2018-12-03T14:25:55.644Z,9.70
2018-12-03T14:28:23.762Z,9.60
2018-12-03T14:30:51.877Z,9.60
2018-12-03T14:33:20.003Z,9.60
2018-12-03T14:35:48.181Z,9.60
2018-12-03T14:38:16.385Z,9.60
2018-12-03T14:40:44.573Z,9.50
2018-12-03T14:43:12.778Z,9.60
2018-12-03T14:45:40.977Z,9.50
2018-12-03T14:48:09.182Z,9.50
2018-12-03T14:50:37.363Z,9.50
2018-12-03T14:53:07.896Z,9.50
2018-12-03T14:55:33.760Z,9.50
2018-12-03T14:58:01.954Z,9.50
2018-12-03T15:00:30.138Z,9.50
2018-12-03T15:02:58.335Z,9.50
2018-12-03T15:05:26.521Z,9.40
2018-12-03T15:07:54.717Z,9.40
2018-12-03T15:10:22.886Z,9.40
2018-12-03T15:12:51.098Z,9.40
2018-12-03T15:15:19.281Z,9.40
2018-12-03T15:17:47.486Z,9.40
2018-12-03T15:20:15.666Z,9.40
2018-12-03T15:22:43.858Z,9.40
2018-12-03T15:25:13.431Z,9.30
2018-12-03T15:27:41.718Z,9.30
2018-12-03T15:30:10.789Z,9.30
2018-12-03T15:32:39.030Z,9.30
2018-12-03T15:35:09.000Z,9.30
2018-12-03T15:37:37.208Z,9.30
2018-12-03T15:40:08.535Z,9.30
2018-12-03T15:42:36.776Z,9.20
2018-12-03T15:45:07.526Z,9.20
2018-12-03T15:47:35.736Z,9.20
2018-12-03T15:50:03.993Z,9.20
2018-12-03T15:52:32.148Z,9.20
2018-12-03T15:55:00.325Z,9.20
2018-12-03T15:57:28.482Z,9.20
2018-12-03T15:59:56.826Z,9.10
2018-12-03T16:02:24.980Z,9.10
2018-12-03T16:04:53.221Z,9.10
2018-12-03T16:07:21.381Z,9.10
2018-12-03T16:09:49.562Z,9.10
2018-12-03T16:12:17.752Z,9.10
2018-12-03T16:14:45.977Z,9.10
2018-12-03T16:17:14.238Z,9.10
2018-12-03T16:19:42.495Z,9.00
2018-12-03T16:22:10.786Z,9.00
2018-12-03T16:24:39.122Z,9.10
2018-12-03T16:27:07.353Z,9.10
2018-12-03T16:29:35.649Z,9.10
2018-12-03T16:32:03.922Z,9.10
2018-12-03T16:34:32.157Z,9.00
2018-12-03T16:37:00.383Z,9.00
2018-12-03T16:39:28.588Z,9.00
2018-12-03T16:41:56.753Z,9.00
2018-12-03T16:44:25.061Z,9.00
2018-12-03T16:47:52.529Z,9.00
2018-12-03T16:50:21.819Z,9.00
2018-12-03T16:52:50.424Z,9.00
2018-12-03T16:55:18.602Z,8.90
2018-12-03T16:57:46.834Z,9.00
2018-12-03T17:00:15.394Z,9.00
2018-12-03T17:02:43.690Z,9.00
2018-12-03T17:05:12.429Z,9.00
2018-12-03T17:07:41.118Z,8.90
2018-12-03T17:10:15.153Z,8.90
2018-12-03T17:12:43.685Z,8.90
2018-12-03T17:15:12.054Z,8.90
2018-12-03T17:17:40.466Z,8.90
2018-12-03T17:20:14.517Z,8.90
2018-12-03T17:23:47.607Z,8.90
2018-12-03T17:26:23.523Z,8.90
2018-12-03T17:28:53.643Z,8.90
2018-12-03T17:31:21.954Z,8.90
2018-12-03T17:34:09.224Z,8.90
2018-12-03T17:36:40.406Z,8.90
2018-12-03T17:44:37.188Z,8.90
2018-12-03T17:47:05.390Z,8.90
2018-12-03T17:49:33.606Z,8.90
2018-12-03T17:52:01.812Z,8.90
2018-12-03T17:54:30.047Z,8.90
2018-12-03T17:56:58.172Z,8.90
2018-12-03T17:59:26.319Z,8.90
2018-12-03T18:01:54.614Z,8.80
2018-12-03T18:04:22.750Z,8.80
2018-12-03T18:06:50.899Z,8.80
2018-12-03T18:09:19.098Z,8.80
2018-12-03T18:11:47.584Z,8.80
2018-12-03T18:14:15.722Z,8.80
2018-12-03T18:16:44.578Z,8.80
2018-12-03T18:19:12.865Z,8.80
2018-12-03T18:21:41.059Z,8.70
2018-12-03T18:24:09.299Z,8.70
2018-12-03T18:26:37.763Z,8.70
2018-12-03T18:29:06.080Z,8.80
2018-12-03T18:31:40.824Z,8.70
2018-12-03T18:34:09.019Z,8.70
2018-12-03T18:36:37.321Z,8.70
2018-12-03T18:39:07.787Z,8.70
2018-12-03T18:41:35.933Z,8.70
2018-12-03T18:44:04.142Z,8.70
2018-12-03T18:46:32.395Z,8.70
2018-12-03T18:49:09.234Z,8.70
2018-12-03T18:51:53.894Z,8.70
2018-12-03T18:57:20.223Z,8.70
2018-12-03T18:59:52.661Z,8.70
2018-12-03T19:02:27.287Z,8.70
2018-12-03T19:04:55.506Z,8.70
2018-12-03T19:07:27.674Z,8.70
2018-12-03T19:10:08.476Z,8.80
2018-12-03T19:12:36.670Z,8.70
2018-12-03T19:15:05.310Z,8.70
2018-12-03T19:17:34.565Z,8.70
2018-12-03T19:20:08.966Z,8.70
2018-12-03T19:22:40.805Z,8.70
2018-12-03T19:31:05.870Z,8.60
2018-12-03T19:36:31.531Z,8.60
2018-12-03T19:42:03.306Z,8.60
2018-12-03T19:44:31.494Z,8.50
2018-12-03T19:46:59.770Z,8.50
2018-12-03T19:49:27.974Z,8.50
2018-12-03T19:51:57.794Z,8.50
2018-12-03T19:54:27.799Z,8.50
2018-12-03T19:56:57.598Z,8.50
2018-12-03T19:59:28.662Z,8.50
2018-12-03T20:02:02.658Z,8.50
2018-12-03T20:04:42.310Z,8.60
2018-12-03T20:09:42.938Z,8.50
2018-12-03T20:12:21.132Z,8.50
2018-12-03T20:15:05.225Z,8.50
2018-12-03T20:17:36.590Z,8.60
2018-12-03T20:20:12.886Z,8.50
2018-12-03T20:28:07.352Z,8.50
2018-12-03T20:30:48.932Z,8.50
2018-12-03T20:33:25.175Z,8.60
2018-12-03T20:36:05.030Z,8.60
2018-12-03T20:38:42.807Z,8.60
2018-12-03T20:41:22.947Z,8.60
2018-12-03T20:43:58.475Z,8.60
2018-12-03T20:47:37.962Z,8.60
2018-12-03T20:50:18.375Z,8.60
2018-12-03T20:52:56.752Z,8.60
2018-12-03T20:55:36.571Z,8.60
2018-12-03T20:58:10.717Z,8.70
2018-12-03T21:00:43.039Z,8.60
2018-12-03T21:03:21.028Z,8.70
2018-12-03T21:05:55.318Z,8.70
2018-12-03T21:08:29.352Z,8.70
2018-12-03T21:11:07.340Z,8.70
2018-12-03T21:13:41.494Z,8.70
2018-12-03T21:16:16.738Z,8.60
2018-12-03T21:18:54.554Z,8.60
2018-12-03T21:21:29.145Z,8.60
2018-12-03T21:24:03.407Z,8.60
2018-12-03T21:26:37.525Z,8.60
2018-12-03T21:29:15.772Z,8.60
2018-12-03T21:31:49.966Z,8.60
2018-12-03T21:34:24.299Z,8.60
2018-12-03T21:36:58.332Z,8.60
2018-12-03T21:39:32.360Z,8.60
2018-12-03T21:42:06.459Z,8.60
2018-12-03T21:44:40.596Z,8.60
2018-12-03T21:47:14.887Z,8.60
2018-12-03T21:49:49.243Z,8.60
2018-12-03T21:52:23.807Z,8.60
2018-12-03T21:54:56.033Z,8.60
2018-12-03T21:57:30.463Z,8.60
2018-12-03T22:00:05.417Z,8.60
2018-12-03T22:02:37.483Z,8.60
2018-12-03T22:05:09.806Z,8.60
2018-12-03T22:07:41.939Z,8.60
2018-12-03T22:10:18.565Z,8.60
2018-12-03T22:12:52.744Z,8.60
2018-12-03T22:15:27.026Z,8.60
2018-12-03T22:18:01.204Z,8.60
2018-12-03T22:20:36.250Z,8.60
2018-12-03T22:23:11.178Z,8.60
2018-12-03T22:25:50.089Z,8.60
2018-12-03T22:28:24.432Z,8.60
2018-12-03T22:30:58.443Z,8.60
2018-12-03T22:33:32.698Z,8.50
2018-12-03T22:36:06.943Z,8.50
2018-12-03T22:38:43.283Z,8.50
2018-12-03T22:41:17.233Z,8.50
2018-12-03T22:48:59.204Z,8.50
2018-12-03T22:51:33.097Z,8.50
2018-12-03T22:54:07.201Z,8.50
2018-12-03T22:59:12.146Z,8.50
2018-12-03T23:01:50.502Z,8.50
2018-12-03T23:06:58.620Z,8.50
2018-12-03T23:12:02.110Z,8.50
2018-12-03T23:14:36.242Z,8.40
2018-12-03T23:17:10.250Z,8.40
2018-12-03T23:22:12.151Z,8.40
2018-12-03T23:24:40.341Z,8.40
2018-12-03T23:27:11.857Z,8.40
2018-12-03T23:29:40.092Z,8.40
2018-12-03T23:32:11.664Z,8.40
2018-12-03T23:34:39.876Z,8.40
2018-12-03T23:37:12.018Z,8.40
2018-12-03T23:42:17.561Z,8.40
2018-12-03T23:44:49.596Z,8.40
2018-12-03T23:47:30.601Z,8.40
2018-12-03T23:53:00.506Z,8.40
2018-12-03T23:58:08.456Z,8.40
